• Join FlightAware (Why Join?)
  • Login
  • US Flag 
08:00PM EDT


 

Airport Tracker/Info


-or-


 

Live Flight TrackerFlight Track Log ✈ UAL5911 ✈ 15-Apr-2013 ✈ KORD - KPIA

Flight Track Log - Related Links

Times and Time Zones

All times are in EDT time to prevent confusion due to time zone crossing. See the UAL5911 flight status page for this flight to view local times or setup timezone preferences in your user account.

Time Position Orientation Groundspeed Altitude Reporting Facility
EDT Latitude Longitude Course Direction KTS MPH feet Rate Location/Type
02:27PM 41.9667 -87.9500 270° West 182 209 2,300  Level Chicago TRACON
02:28PM 41.9500 -88.0000 246° West 204 235 4,300 1,020 Climbing Chicago TRACON
02:29PM 41.9667 -88.2306 270° West  Level FlightAware Approximate
02:29PM 41.9144 -88.1419 251° West 242 278 5,000  Level Chicago Center
02:30PM 41.9667 -88.3407 270° West  Level FlightAware Approximate
02:30PM 41.9336 -88.2297 286° West 258 297 6,300  Level Chicago Center
02:31PM 41.9667 -88.4509 270° West  Level FlightAware Approximate
02:31PM 41.9544 -88.3189 287° West 262 302 8,700  Level Chicago Center
02:32PM 41.9667 -88.5611 270° West  Level FlightAware Approximate
02:32PM 41.9528 -88.4142 269° West 262 302 11,000  Level Chicago Center
02:33PM 41.9106 -88.5072 239° Southwest 297 342 11,000  Level Chicago Center
02:34PM 41.8636 -88.6356 244° Southwest 320 368 11,000 -420 Level Chicago Center
02:35PM 41.8239 -88.7400 243° Southwest 319 367 10,200 -540 Descending Chicago Center
02:36PM 41.7867 -88.8442 244° Southwest 314 361 10,000 -120 Descending Chicago Center
02:37PM 41.7486 -88.9461 243° Southwest 311 358 10,000  Level Chicago Center
02:39PM 41.7075 -89.0631 245° Southwest 295 339 10,000  Level Chicago Center
02:40PM 41.6717 -89.1603 244° Southwest 294 338 10,000  Level Chicago Center
02:41PM 41.6019 -89.2225 214° Southwest 320 368 10,000  Level Chicago Center
02:42PM 41.5081 -89.2614 197° South 323 372 10,000  Level Chicago Center
02:43PM 41.4297 -89.2914 196° South 300 345 10,000  Level Chicago Center
02:44PM 41.3567 -89.3208 197° South 278 320 10,000 -120 Level Chicago Center
02:45PM 41.2842 -89.3278 184° South 265 305 9,800 -780 Descending Chicago Center
02:46PM 41.2167 -89.3217 176° South 246 283 8,500 -1,380 Descending Chicago Center
02:47PM 41.1481 -89.3178 178° South 246 283 7,000 -1,620 Descending Chicago Center
02:48PM 41.0700 -89.3156 179° South 237 273 5,200 -1,500 Descending Chicago Center
02:49PM 41.0064 -89.3133 178° South 231 266 4,000 -600 Descending Chicago Center
02:50PM 40.9486 -89.3381 198° South 236 272 4,000  Level Chicago Center
02:51PM 40.8981 -89.3900 218° Southwest 232 267 4,000 -360 Level Chicago Center
02:52PM 40.8497 -89.4386 217° Southwest 227 261 3,300 -840 Descending Chicago Center
02:53PM 40.8058 -89.4828 217° Southwest 213 245 2,400 -480 Descending Chicago Center
02:54PM 40.7608 -89.5286 218° Southwest 206 237 2,400  Level Chicago Center
02:55PM 40.6986 -89.5600 201° Southwest 198 228 2,400  Level Chicago Center